Time;durP1;ratioP1;P1;durP2;ratioP2;P2;SDS_P1;SDS_P2;PMS_P1;PMS_P2;Temp;Humidity;BMP_temperature;BMP_pressure;BME280_temperature;BME280_humidity;BME280_pressure;Samples;Min_cycle;Max_cycle;Signal;HPM_P1;HPM_P2
2022/09/01 00:02:19;;;;;;;6.18;2.47;;;20.20;56.90;;;;;;4978678;28;20057;-77
2022/09/01 00:04:46;;;;;;;6.68;2.20;;;20.20;56.90;;;;;;4979276;28;20034;-76
2022/09/01 00:07:13;;;;;;;6.05;2.38;;;20.10;56.80;;;;;;4978965;28;20053;-76
2022/09/01 00:09:40;;;;;;;6.35;2.42;;;20.10;56.80;;;;;;4984687;28;20057;-75
2022/09/01 00:12:07;;;;;;;7.55;2.20;;;20.20;56.50;;;;;;4979394;28;20047;-76
2022/09/01 00:14:38;;;;;;;7.32;2.38;;;20.10;56.50;;;;;;4983677;28;20038;-76
2022/09/01 00:17:08;;;;;;;6.25;2.25;;;20.00;56.70;;;;;;4976199;28;20035;-76
2022/09/01 00:19:35;;;;;;;3.90;2.10;;;20.00;56.70;;;;;;4976263;28;20118;-75
2022/09/01 00:22:01;;;;;;;6.25;2.00;;;20.00;56.60;;;;;;4982243;28;20447;-76
2022/09/01 00:24:28;;;;;;;5.13;2.20;;;20.00;56.60;;;;;;4984527;28;20023;-78
2022/09/01 00:26:55;;;;;;;4.78;2.45;;;20.00;56.70;;;;;;4967777;28;20043;-76
2022/09/01 00:29:22;;;;;;;5.47;2.20;;;19.80;56.60;;;;;;4979576;28;20537;-76
2022/09/01 00:31:48;;;;;;;5.88;2.60;;;19.80;56.80;;;;;;4980525;28;20070;-77
2022/09/01 00:34:15;;;;;;;6.88;2.05;;;19.80;56.90;;;;;;4975298;28;20041;-75
2022/09/01 00:36:42;;;;;;;7.55;2.33;;;19.70;57.20;;;;;;4971293;28;20390;-75
2022/09/01 00:39:09;;;;;;;6.85;2.42;;;19.60;57.10;;;;;;4980613;28;20027;-76
2022/09/01 00:41:37;;;;;;;4.32;1.80;;;19.60;57.40;;;;;;4984241;28;20429;-76
2022/09/01 00:44:10;;;;;;;6.38;2.60;;;19.60;57.30;;;;;;4980670;28;20039;-75
2022/09/01 00:46:40;;;;;;;9.10;2.90;;;19.60;57.50;;;;;;4983793;28;20037;-75
2022/09/01 00:49:25;;;;;;;6.93;2.25;;;19.60;57.40;;;;;;4982732;28;20478;-78
2022/09/01 00:51:59;;;;;;;5.90;2.10;;;19.50;57.60;;;;;;4981068;28;20030;-76
2022/09/01 00:54:29;;;;;;;8.15;2.20;;;19.40;57.70;;;;;;4984281;28;20109;-77
2022/09/01 00:56:55;;;;;;;5.70;2.08;;;19.40;57.70;;;;;;4978387;28;20127;-76
2022/09/01 00:59:23;;;;;;;4.03;1.80;;;19.30;57.80;;;;;;4982858;28;20061;-76
2022/09/01 01:01:49;;;;;;;4.45;2.03;;;19.30;58.00;;;;;;4980613;28;20045;-76
2022/09/01 01:04:15;;;;;;;5.88;2.17;;;19.30;58.00;;;;;;4976699;28;20038;-76
2022/09/01 01:06:48;;;;;;;4.55;1.90;;;19.30;58.10;;;;;;4983468;28;20035;-76
2022/09/01 01:09:20;;;;;;;5.15;2.00;;;19.30;58.20;;;;;;4980562;28;20027;-80
2022/09/01 01:11:47;;;;;;;4.25;2.05;;;19.20;58.50;;;;;;4981962;28;20032;-77
2022/09/01 01:14:16;;;;;;;4.20;2.10;;;19.10;58.70;;;;;;4986152;28;20047;-80
2022/09/01 01:16:47;;;;;;;5.80;2.13;;;19.10;58.80;;;;;;4983763;28;20343;-76
2022/09/01 01:25:22;;;;;;;5.43;2.17;;;18.80;59.70;;;;;;4974064;28;20045;-77
2022/09/01 01:27:49;;;;;;;5.95;2.20;;;18.80;59.90;;;;;;4988147;28;20043;-77
2022/09/01 01:30:16;;;;;;;5.35;2.00;;;18.70;60.20;;;;;;4985593;28;20375;-76
2022/09/01 01:32:44;;;;;;;6.95;2.20;;;18.60;60.50;;;;;;4989456;28;20042;-76
2022/09/01 01:35:15;;;;;;;5.95;2.38;;;18.60;60.70;;;;;;4980341;28;20051;-79
2022/09/01 01:37:45;;;;;;;5.45;1.98;;;18.60;60.90;;;;;;4982844;28;20062;-75
2022/09/01 01:40:14;;;;;;;3.75;2.22;;;18.60;60.80;;;;;;4980086;28;20045;-77
2022/09/01 01:42:46;;;;;;;6.43;2.28;;;18.60;61.20;;;;;;4972386;28;20027;-80
2022/09/01 01:45:18;;;;;;;5.35;2.45;;;18.40;61.60;;;;;;4977384;28;20038;-76
2022/09/01 01:47:51;;;;;;;7.57;2.40;;;18.40;61.90;;;;;;4982008;28;20587;-77
2022/09/01 01:50:16;;;;;;;6.45;2.75;;;18.30;62.20;;;;;;4980980;28;20049;-75
2022/09/01 01:52:42;;;;;;;7.85;2.50;;;18.30;62.30;;;;;;4980788;28;20034;-75
2022/09/01 01:55:11;;;;;;;5.03;2.63;;;18.30;62.50;;;;;;4985937;28;20540;-76
2022/09/01 01:57:39;;;;;;;9.40;2.53;;;18.20;62.30;;;;;;4988900;28;20129;-76
2022/09/01 02:00:05;;;;;;;5.22;2.42;;;18.20;62.40;;;;;;4981417;28;20038;-79
2022/09/01 02:02:31;;;;;;;6.03;2.60;;;18.10;62.30;;;;;;4979140;28;20121;-76
2022/09/01 02:04:57;;;;;;;7.03;2.42;;;18.10;62.30;;;;;;4987684;28;20129;-77
2022/09/01 02:07:23;;;;;;;5.72;2.50;;;18.10;62.20;;;;;;4986564;28;20438;-75
2022/09/01 02:09:49;;;;;;;9.02;2.60;;;18.10;62.20;;;;;;4984602;28;20430;-76
2022/09/01 02:12:18;;;;;;;8.07;2.55;;;18.10;62.30;;;;;;4982030;28;20378;-76
2022/09/01 02:14:44;;;;;;;7.32;2.47;;;18.10;62.00;;;;;;4978188;28;20085;-76
2022/09/01 02:17:10;;;;;;;7.13;2.50;;;18.20;62.00;;;;;;4982053;28;20391;-76
2022/09/01 02:19:41;;;;;;;8.30;2.65;;;18.20;61.80;;;;;;4985777;28;20046;-77
2022/09/01 02:22:09;;;;;;;5.55;2.53;;;18.20;61.60;;;;;;4986332;28;20552;-77
2022/09/01 02:24:36;;;;;;;5.22;2.38;;;18.20;61.60;;;;;;4985670;28;20038;-79
2022/09/01 02:27:04;;;;;;;7.00;2.70;;;18.10;61.30;;;;;;4984342;28;20041;-76
2022/09/01 02:29:30;;;;;;;5.43;2.42;;;18.20;61.10;;;;;;4987516;28;20053;-76
2022/09/01 02:31:56;;;;;;;5.05;2.17;;;18.20;61.00;;;;;;4981047;28;20030;-76
2022/09/01 02:34:26;;;;;;;8.98;2.50;;;18.20;60.70;;;;;;4983417;28;20034;-76
2022/09/01 02:36:55;;;;;;;5.85;2.65;;;18.20;60.70;;;;;;4975128;28;20413;-76
2022/09/01 02:39:27;;;;;;;4.63;2.20;;;18.10;60.40;;;;;;4998426;28;20041;-79
2022/09/01 02:41:53;;;;;;;6.97;2.50;;;18.20;60.50;;;;;;5001425;28;20532;-76
2022/09/01 02:44:20;;;;;;;5.10;2.33;;;18.10;60.60;;;;;;4995471;28;20481;-76
2022/09/01 02:46:49;;;;;;;6.07;2.42;;;18.10;60.30;;;;;;5001666;28;20033;-77
2022/09/01 02:49:18;;;;;;;8.65;2.50;;;18.10;60.00;;;;;;5004311;28;20037;-76
2022/09/01 02:51:52;;;;;;;5.03;2.40;;;18.10;59.90;;;;;;5008989;28;20246;-77
2022/09/01 02:54:21;;;;;;;11.43;2.75;;;18.00;60.00;;;;;;4999023;28;20098;-76
2022/09/01 02:56:48;;;;;;;5.82;2.45;;;17.90;60.30;;;;;;5001405;28;20054;-77
2022/09/01 02:59:20;;;;;;;6.90;2.42;;;17.90;60.40;;;;;;5003584;28;20038;-76
2022/09/01 03:01:47;;;;;;;7.95;2.80;;;17.90;60.30;;;;;;5006440;28;20030;-77
2022/09/01 03:04:13;;;;;;;5.10;2.35;;;17.90;60.40;;;;;;5002945;28;20069;-77
2022/09/01 03:06:40;;;;;;;6.03;2.30;;;17.80;60.00;;;;;;5003973;28;20042;-76
2022/09/01 03:09:11;;;;;;;5.07;2.47;;;17.70;60.50;;;;;;4997591;28;20033;-77
2022/09/01 03:11:39;;;;;;;4.95;2.15;;;17.70;60.40;;;;;;4994458;28;20018;-77
2022/09/01 03:14:06;;;;;;;5.97;2.50;;;17.80;60.10;;;;;;5000125;28;20342;-80
2022/09/01 03:16:33;;;;;;;4.95;2.38;;;17.70;60.30;;;;;;4998816;28;20037;-76
2022/09/01 03:18:58;;;;;;;5.75;2.58;;;17.70;60.30;;;;;;4997423;28;20577;-76
2022/09/01 03:21:25;;;;;;;4.60;2.70;;;17.70;60.20;;;;;;4993650;28;20046;-76
2022/09/01 03:23:51;;;;;;;6.05;2.47;;;17.70;60.40;;;;;;5003981;28;20050;-77
2022/09/01 03:26:21;;;;;;;7.00;2.67;;;17.60;60.30;;;;;;5003979;28;20030;-75
2022/09/01 03:28:48;;;;;;;8.10;2.63;;;17.60;60.40;;;;;;5006562;28;20531;-76
2022/09/01 03:31:15;;;;;;;8.05;2.33;;;17.60;60.20;;;;;;5003887;28;20133;-75
2022/09/01 03:33:41;;;;;;;6.50;2.53;;;17.60;60.30;;;;;;4993243;28;20089;-76
2022/09/01 03:36:07;;;;;;;9.60;2.60;;;17.60;60.40;;;;;;4999018;28;20550;-76
2022/09/01 03:38:33;;;;;;;7.03;2.30;;;17.50;60.30;;;;;;4998972;28;20034;-77
2022/09/01 03:41:03;;;;;;;5.50;2.33;;;17.50;60.40;;;;;;5002790;28;20036;-75
2022/09/01 03:43:31;;;;;;;7.63;2.80;;;17.50;60.50;;;;;;4999588;28;20037;-76
2022/09/01 03:45:59;;;;;;;6.00;2.53;;;17.40;60.70;;;;;;5036537;28;20045;-75
2022/09/01 03:48:27;;;;;;;7.72;2.70;;;17.40;60.70;;;;;;5000453;28;20552;-76
2022/09/01 03:50:55;;;;;;;6.63;2.33;;;17.30;61.00;;;;;;4998541;28;20026;-75
2022/09/01 03:53:24;;;;;;;5.05;2.42;;;17.20;61.00;;;;;;5005576;28;20409;-76
2022/09/01 03:55:51;;;;;;;7.82;2.60;;;17.10;61.20;;;;;;5017971;28;20065;-76
2022/09/01 03:58:18;;;;;;;7.47;2.80;;;17.10;61.10;;;;;;5018130;28;20072;-75
2022/09/01 04:00:48;;;;;;;7.40;2.90;;;17.00;61.50;;;;;;5008320;28;20057;-75
2022/09/01 04:03:15;;;;;;;6.35;3.03;;;17.00;61.50;;;;;;5007061;28;20496;-77
2022/09/01 04:05:43;;;;;;;8.13;2.80;;;17.00;61.50;;;;;;5006909;28;20607;-75
2022/09/01 04:08:11;;;;;;;7.05;2.90;;;17.00;61.60;;;;;;5009059;28;20113;-77
2022/09/01 04:10:46;;;;;;;9.70;2.50;;;16.90;61.70;;;;;;5011927;28;20033;-76
2022/09/01 04:13:12;;;;;;;7.70;3.08;;;16.90;61.90;;;;;;4999187;28;20062;-75
2022/09/01 04:15:38;;;;;;;6.10;2.63;;;16.90;61.90;;;;;;5012440;28;20045;-76
2022/09/01 04:18:18;;;;;;;5.53;3.00;;;16.70;62.20;;;;;;5009485;28;20058;-77
2022/09/01 04:20:49;;;;;;;5.60;2.47;;;16.70;62.40;;;;;;5003746;28;20048;-75
2022/09/01 04:23:25;;;;;;;5.07;2.55;;;16.60;62.70;;;;;;5010589;28;20068;-78
2022/09/01 04:26:07;;;;;;;5.28;2.20;;;16.60;62.90;;;;;;4995750;28;21222;-76
2022/09/01 04:28:39;;;;;;;7.82;2.97;;;16.60;62.80;;;;;;5011448;28;20453;-74
2022/09/01 04:31:08;;;;;;;6.10;2.78;;;16.60;62.90;;;;;;4998528;28;20434;-75
2022/09/01 04:33:38;;;;;;;8.07;2.95;;;16.60;62.90;;;;;;4989346;28;20390;-75
2022/09/01 04:36:22;;;;;;;9.27;2.78;;;16.60;62.90;;;;;;4995440;28;20151;-76
2022/09/01 04:38:54;;;;;;;6.97;2.97;;;16.50;63.00;;;;;;4988203;28;20351;-75
2022/09/01 04:41:24;;;;;;;9.10;3.08;;;16.40;63.40;;;;;;4990357;28;20141;-75
2022/09/01 04:43:51;;;;;;;7.13;2.85;;;16.40;63.50;;;;;;4997061;28;20112;-75
2022/09/01 04:46:20;;;;;;;6.97;3.28;;;16.30;63.70;;;;;;4995199;28;20037;-76
2022/09/01 04:48:46;;;;;;;7.82;2.80;;;16.30;63.90;;;;;;5000239;28;20326;-78
2022/09/01 04:51:14;;;;;;;8.40;3.40;;;16.30;63.90;;;;;;4998312;28;20406;-76
2022/09/01 04:53:47;;;;;;;7.57;2.90;;;16.20;64.10;;;;;;4996177;28;20719;-78
2022/09/01 04:56:14;;;;;;;7.38;3.08;;;16.20;64.00;;;;;;5002443;28;20096;-77
2022/09/01 04:58:40;;;;;;;7.22;3.00;;;16.20;64.20;;;;;;5002345;28;20034;-76
2022/09/01 05:01:17;;;;;;;8.50;3.30;;;16.20;64.10;;;;;;4997950;28;20117;-76
2022/09/01 05:03:44;;;;;;;9.65;3.22;;;16.20;64.20;;;;;;5001166;28;20110;-75
2022/09/01 05:06:18;;;;;;;8.93;3.45;;;16.20;64.20;;;;;;5029502;28;20376;-79
2022/09/01 05:08:45;;;;;;;7.13;3.17;;;16.10;64.40;;;;;;5000404;28;20080;-76
2022/09/01 05:11:14;;;;;;;12.75;4.03;;;16.10;64.70;;;;;;5004515;28;20074;-78
2022/09/01 05:13:42;;;;;;;7.65;3.50;;;16.10;64.60;;;;;;5010893;28;20057;-78
2022/09/01 05:16:11;;;;;;;7.95;3.38;;;16.10;64.80;;;;;;5001197;28;20100;-75
2022/09/01 05:18:39;;;;;;;8.15;3.38;;;16.10;64.80;;;;;;4995896;28;20397;-77
2022/09/01 05:21:10;;;;;;;7.20;3.53;;;16.10;64.90;;;;;;4999092;28;20042;-79
2022/09/01 05:23:39;;;;;;;9.05;3.53;;;16.10;64.80;;;;;;5000233;28;20045;-77
2022/09/01 05:26:13;;;;;;;10.73;4.35;;;16.10;64.50;;;;;;4998611;28;20048;-76
2022/09/01 05:28:40;;;;;;;11.73;3.70;;;16.10;64.70;;;;;;5001873;28;20068;-76
2022/09/01 05:31:06;;;;;;;8.70;3.90;;;16.10;64.80;;;;;;5000484;28;20385;-75
2022/09/01 05:33:35;;;;;;;9.73;3.83;;;16.10;64.90;;;;;;5004268;28;20034;-75
2022/09/01 05:36:07;;;;;;;9.05;3.78;;;16.10;64.90;;;;;;5001014;28;20393;-76
2022/09/01 05:38:33;;;;;;;14.68;4.25;;;16.10;64.90;;;;;;5011449;28;20036;-76
2022/09/01 05:41:03;;;;;;;7.10;3.40;;;16.10;65.00;;;;;;5003768;28;20399;-76
2022/09/01 05:43:30;;;;;;;7.72;3.95;;;16.20;65.00;;;;;;4999425;28;20103;-76
2022/09/01 05:45:57;;;;;;;7.65;3.67;;;16.20;65.00;;;;;;4997651;28;20108;-75
2022/09/01 05:48:23;;;;;;;8.57;3.90;;;16.20;64.90;;;;;;5001097;28;20169;-75
2022/09/01 05:50:54;;;;;;;8.32;4.05;;;16.30;64.80;;;;;;4999039;28;20029;-75
2022/09/01 05:53:24;;;;;;;7.75;3.67;;;16.30;64.80;;;;;;4993798;28;20164;-76
2022/09/01 05:55:55;;;;;;;9.75;4.28;;;16.30;64.80;;;;;;5004037;28;20556;-75
2022/09/01 05:58:23;;;;;;;8.52;3.72;;;16.40;64.70;;;;;;5007613;28;20037;-76
2022/09/01 06:00:50;;;;;;;10.38;4.10;;;16.30;64.80;;;;;;5001245;28;20331;-75
2022/09/01 06:03:17;;;;;;;8.68;3.97;;;16.30;64.90;;;;;;4998393;28;20079;-75
2022/09/01 06:05:47;;;;;;;9.05;4.20;;;16.30;65.10;;;;;;5004467;28;20061;-75
2022/09/01 06:08:14;;;;;;;7.80;4.32;;;16.30;65.10;;;;;;5008129;28;20037;-75
2022/09/01 06:10:40;;;;;;;8.57;4.15;;;16.40;64.90;;;;;;4999195;28;20109;-77
2022/09/01 06:13:09;;;;;;;14.70;4.30;;;16.50;64.80;;;;;;5000275;28;20046;-76
2022/09/01 06:15:39;;;;;;;10.00;4.32;;;16.60;64.60;;;;;;5003411;28;20054;-74
2022/09/01 06:18:06;;;;;;;8.88;4.38;;;16.60;64.50;;;;;;5005958;28;20532;-74
2022/09/01 06:20:33;;;;;;;8.75;4.13;;;16.60;64.60;;;;;;5002050;28;20561;-75
2022/09/01 06:22:59;;;;;;;8.25;4.47;;;16.60;64.40;;;;;;5000672;28;20042;-74
2022/09/01 06:25:29;;;;;;;9.38;4.55;;;16.70;64.30;;;;;;5005128;28;20038;-73
2022/09/01 06:27:55;;;;;;;9.50;4.70;;;16.70;64.10;;;;;;5000404;28;20053;-74
2022/09/01 06:30:22;;;;;;;12.35;5.00;;;16.60;64.20;;;;;;4998142;28;20537;-75
2022/09/01 06:32:48;;;;;;;10.48;5.22;;;16.80;64.20;;;;;;5004803;28;20026;-74
2022/09/01 06:35:15;;;;;;;11.10;5.03;;;16.90;63.90;;;;;;5009377;28;20547;-74
2022/09/01 06:37:42;;;;;;;9.73;4.95;;;17.00;63.40;;;;;;5005799;28;20030;-75
2022/09/01 06:40:15;;;;;;;9.93;5.15;;;17.00;63.70;;;;;;4998922;28;20037;-74
2022/09/01 06:42:46;;;;;;;14.10;5.88;;;17.20;63.00;;;;;;5005235;28;20609;-74
2022/09/01 06:45:14;;;;;;;12.20;5.78;;;17.30;62.10;;;;;;5002483;28;20033;-74
2022/09/01 06:47:46;;;;;;;12.90;5.93;;;17.60;61.90;;;;;;5012000;28;20452;-75
2022/09/01 06:50:14;;;;;;;13.15;6.22;;;17.70;61.30;;;;;;5003890;28;20066;-75
2022/09/01 06:52:43;;;;;;;12.60;5.85;;;17.80;60.70;;;;;;5003307;28;20107;-75
2022/09/01 06:55:13;;;;;;;14.65;5.88;;;17.90;60.30;;;;;;4996210;28;20205;-80
2022/09/01 06:57:40;;;;;;;14.13;6.22;;;18.10;60.10;;;;;;5003024;28;20490;-75
2022/09/01 07:00:16;;;;;;;11.50;6.38;;;18.20;59.80;;;;;;5003807;28;20045;-76
2022/09/01 07:02:46;;;;;;;13.20;6.20;;;18.30;59.70;;;;;;5000686;28;20040;-76
2022/09/01 07:05:18;;;;;;;13.32;6.40;;;18.50;59.20;;;;;;5006524;28;20164;-75
2022/09/01 07:07:50;;;;;;;12.52;5.93;;;18.60;58.40;;;;;;5000936;28;20541;-76
2022/09/01 07:10:21;;;;;;;13.13;6.10;;;18.70;58.10;;;;;;5000583;28;20104;-76
2022/09/01 07:12:48;;;;;;;11.65;6.40;;;18.60;58.30;;;;;;4995502;28;20371;-80
2022/09/01 07:15:15;;;;;;;11.50;6.47;;;18.60;58.70;;;;;;5005264;28;20374;-78
2022/09/01 07:17:48;;;;;;;11.43;6.50;;;18.80;58.70;;;;;;4987397;28;20463;-77
2022/09/01 07:20:14;;;;;;;12.02;6.38;;;18.80;58.00;;;;;;4998587;28;20413;-76
2022/09/01 07:22:41;;;;;;;11.82;6.72;;;19.00;57.50;;;;;;4992588;28;20046;-79
2022/09/01 07:25:09;;;;;;;12.43;6.90;;;19.10;58.10;;;;;;5023082;28;20036;-76
2022/09/01 07:27:35;;;;;;;13.73;7.28;;;19.20;57.20;;;;;;4999229;28;20346;-76
2022/09/01 07:30:02;;;;;;;11.25;6.68;;;19.50;57.30;;;;;;5003895;28;20433;-77
2022/09/01 07:32:29;;;;;;;14.23;7.35;;;19.70;56.70;;;;;;5000953;28;20034;-79
2022/09/01 07:34:55;;;;;;;12.73;6.80;;;19.80;55.90;;;;;;5011787;28;20426;-77
2022/09/01 07:37:21;;;;;;;10.77;6.63;;;19.90;56.10;;;;;;5006011;28;20478;-77
2022/09/01 07:39:47;;;;;;;12.98;5.25;;;20.00;56.00;;;;;;5006730;28;20025;-81
2022/09/01 07:42:16;;;;;;;11.48;6.18;;;20.30;57.40;;;;;;5009180;28;20034;-83
2022/09/01 07:44:41;;;;;;;16.45;6.85;;;20.60;54.90;;;;;;5008827;28;20034;-82
2022/09/01 07:47:08;;;;;;;11.88;6.53;;;20.70;54.10;;;;;;5005057;28;20121;-83
2022/09/01 07:49:36;;;;;;;12.60;7.00;;;20.80;54.60;;;;;;4995869;28;20033;-82
2022/09/01 07:52:03;;;;;;;12.25;7.40;;;21.10;54.10;;;;;;5005200;28;20030;-83
2022/09/01 07:54:30;;;;;;;13.52;6.78;;;21.30;53.80;;;;;;5003111;28;20044;-84
2022/09/01 07:56:56;;;;;;;11.40;7.40;;;21.20;52.10;;;;;;4998371;28;20410;-85
2022/09/01 07:59:22;;;;;;;14.27;7.30;;;20.80;53.90;;;;;;5003312;28;20041;-87
2022/09/01 08:01:49;;;;;;;11.20;7.32;;;20.60;55.00;;;;;;5009031;28;20077;-84
2022/09/01 08:04:17;;;;;;;11.02;7.57;;;20.50;55.20;;;;;;4996080;28;20034;-80
2022/09/01 08:06:42;;;;;;;15.20;7.88;;;20.60;54.80;;;;;;5001903;28;20092;-84
2022/09/01 08:09:09;;;;;;;11.60;7.65;;;20.60;55.20;;;;;;4992183;28;20458;-82
2022/09/01 08:11:36;;;;;;;12.00;7.65;;;20.80;54.40;;;;;;5004973;28;20424;-83
2022/09/01 08:14:02;;;;;;;11.85;7.50;;;20.70;54.80;;;;;;5017705;28;20048;-86
2022/09/01 08:16:30;;;;;;;11.48;7.15;;;21.10;55.00;;;;;;5004748;28;20038;-81
2022/09/01 08:18:56;;;;;;;13.90;8.15;;;21.20;53.40;;;;;;5009292;28;20042;-84
2022/09/01 08:21:23;;;;;;;12.40;7.75;;;21.20;54.30;;;;;;5004602;28;20038;-83
2022/09/01 08:23:51;;;;;;;14.18;8.05;;;21.00;53.90;;;;;;4997595;28;20040;-83
2022/09/01 08:26:20;;;;;;;16.17;7.97;;;20.70;55.20;;;;;;4992510;28;20289;-84
2022/09/01 08:28:46;;;;;;;12.52;7.65;;;20.90;55.20;;;;;;5009019;28;20030;-84
2022/09/01 08:31:16;;;;;;;15.93;7.68;;;21.40;54.80;;;;;;5009644;28;20061;-85
2022/09/01 08:33:43;;;;;;;13.05;7.97;;;21.70;53.70;;;;;;5021674;28;20021;-79
2022/09/01 08:36:11;;;;;;;13.18;7.57;;;21.80;53.20;;;;;;5018562;28;20037;-84
2022/09/01 08:38:37;;;;;;;10.63;6.78;;;21.90;52.70;;;;;;5009183;28;20030;-79
2022/09/01 08:41:11;;;;;;;22.27;8.40;;;22.20;53.50;;;;;;5007106;28;20382;-79
2022/09/01 08:43:55;;;;;;;;;;;22.30;52.00;;;;;;5002914;28;20110;-82
2022/09/01 08:46:33;;;;;;;13.50;6.85;;;22.20;52.40;;;;;;4994847;28;19925;-77
2022/09/01 08:49:06;;;;;;;11.70;7.15;;;22.10;52.80;;;;;;5009121;28;20026;-82
2022/09/01 08:51:41;;;;;;;13.88;7.32;;;22.10;52.80;;;;;;5005110;28;20049;-81
2022/09/01 08:54:25;;;;;;;13.15;7.68;;;22.50;52.30;;;;;;5002148;28;20035;-83
2022/09/01 08:56:56;;;;;;;11.30;7.82;;;22.80;51.40;;;;;;5020419;28;20246;-79
2022/09/01 08:59:22;;;;;;;14.07;7.57;;;22.80;51.40;;;;;;4998665;28;20047;-80
2022/09/01 09:01:50;;;;;;;16.42;7.15;;;22.60;51.40;;;;;;4995475;28;20037;-86
2022/09/01 09:04:33;;;;;;;13.38;7.97;;;22.60;52.30;;;;;;5007346;28;20373;-83
2022/09/01 09:07:09;;;;;;;10.75;7.32;;;22.80;51.20;;;;;;4993107;28;20042;-83
2022/09/01 09:10:06;;;;;;;12.27;8.02;;;23.10;50.40;;;;;;4993827;28;20037;-83
2022/09/01 09:12:44;;;;;;;14.05;7.82;;;23.50;50.30;;;;;;4991447;28;20049;-84
2022/09/01 09:15:25;;;;;;;16.70;8.55;;;23.40;50.60;;;;;;4992531;28;20096;-82
2022/09/01 09:17:59;;;;;;;11.13;7.68;;;23.10;50.40;;;;;;4993001;28;20058;-82
2022/09/01 09:20:26;;;;;;;14.13;7.38;;;23.30;51.00;;;;;;4994421;28;20045;-80
2022/09/01 09:22:53;;;;;;;12.80;7.50;;;23.30;50.40;;;;;;4991862;28;20038;-82
2022/09/01 09:25:19;;;;;;;11.95;6.72;;;23.10;50.90;;;;;;4988750;28;20041;-81
2022/09/01 09:27:49;;;;;;;11.10;6.70;;;23.50;50.70;;;;;;4990905;28;20046;-80
2022/09/01 09:30:27;;;;;;;13.50;7.28;;;23.90;49.30;;;;;;4989132;28;20041;-79
2022/09/01 09:33:33;;;;;;;14.38;7.28;;;24.10;49.20;;;;;;4995669;28;20061;-81
2022/09/01 09:36:18;;;;;;;12.32;7.28;;;24.40;48.40;;;;;;4992953;28;20514;-79
2022/09/01 09:38:44;;;;;;;12.95;6.60;;;24.60;47.70;;;;;;4993127;28;20077;-82
2022/09/01 09:41:17;;;;;;;12.43;6.70;;;24.80;47.10;;;;;;4998060;28;20113;-80
2022/09/01 09:44:05;;;;;;;13.30;6.18;;;25.00;47.00;;;;;;4997745;28;20057;-81
2022/09/01 09:46:31;;;;;;;16.40;7.72;;;25.20;47.00;;;;;;4996444;28;20096;-81
2022/09/01 09:49:19;;;;;;;13.02;6.90;;;24.80;46.50;;;;;;4998937;28;20034;-79
2022/09/01 09:51:48;;;;;;;12.05;7.40;;;24.20;48.20;;;;;;4994042;28;20551;-79
2022/09/01 09:54:17;;;;;;;9.95;6.60;;;24.20;48.60;;;;;;5008589;28;20495;-77
2022/09/01 09:56:45;;;;;;;12.45;6.38;;;24.40;49.00;;;;;;5004320;28;20042;-79
2022/09/01 09:59:28;;;;;;;12.30;6.72;;;24.80;47.90;;;;;;4993419;28;20492;-81
2022/09/01 10:02:19;;;;;;;11.68;6.63;;;24.90;46.70;;;;;;5006183;28;20034;-82
2022/09/01 10:04:44;;;;;;;11.68;6.32;;;25.20;46.50;;;;;;5004747;28;20077;-81
2022/09/01 10:07:36;;;;;;;11.98;6.03;;;25.40;46.70;;;;;;5012582;28;20189;-77
2022/09/01 10:10:23;;;;;;;11.70;6.00;;;26.00;44.70;;;;;;5017027;28;20029;-81
2022/09/01 10:12:54;;;;;;;11.30;5.63;;;26.20;44.10;;;;;;5019108;28;20037;-79
2022/09/01 10:15:24;;;;;;;10.43;5.07;;;26.20;43.90;;;;;;5009849;28;20026;-82
2022/09/01 10:17:53;;;;;;;8.63;5.45;;;26.20;44.00;;;;;;5016780;28;20061;-78
2022/09/01 10:20:22;;;;;;;10.35;6.10;;;26.20;44.30;;;;;;5010564;28;20047;-81
2022/09/01 10:22:48;;;;;;;10.52;5.93;;;26.00;44.00;;;;;;4995882;28;20054;-85
2022/09/01 10:25:21;;;;;;;10.55;5.57;;;25.50;45.10;;;;;;4990725;28;20121;-79
2022/09/01 10:27:53;;;;;;;9.45;5.07;;;25.30;45.80;;;;;;4994461;28;20360;-77
2022/09/01 10:30:21;;;;;;;11.00;5.78;;;25.30;46.20;;;;;;4993154;28;20080;-79
2022/09/01 10:32:51;;;;;;;10.73;5.90;;;25.80;44.50;;;;;;4992500;28;20034;-79
2022/09/01 10:35:31;;;;;;;10.15;5.60;;;25.80;44.20;;;;;;4993677;28;20022;-78
2022/09/01 10:38:02;;;;;;;9.52;4.90;;;25.90;43.70;;;;;;4997629;28;20042;-84
2022/09/01 10:40:27;;;;;;;9.90;5.22;;;26.10;44.00;;;;;;4996151;28;20136;-78
2022/09/01 10:43:20;;;;;;;11.07;4.88;;;26.40;42.60;;;;;;4996776;28;20449;-83
2022/09/01 10:45:46;;;;;;;9.40;4.80;;;26.50;42.30;;;;;;4995668;28;20042;-81
2022/09/01 10:48:24;;;;;;;7.35;4.18;;;26.40;42.60;;;;;;4992611;28;20034;-81
2022/09/01 10:51:13;;;;;;;10.52;4.70;;;26.30;42.00;;;;;;4994246;28;20069;-84
2022/09/01 10:53:39;;;;;;;8.80;4.60;;;26.60;42.50;;;;;;4993665;28;20036;-82
2022/09/01 10:56:33;;;;;;;7.15;4.00;;;27.00;40.70;;;;;;4991709;28;20045;-82
2022/09/01 10:59:06;;;;;;;8.40;3.60;;;27.10;40.10;;;;;;5008462;28;20034;-82
2022/09/01 11:01:44;;;;;;;8.65;4.63;;;27.60;39.40;;;;;;4994073;28;20105;-85
2022/09/01 11:04:17;;;;;;;7.70;4.18;;;27.60;39.40;;;;;;4994456;28;20316;-85
2022/09/01 11:06:53;;;;;;;8.23;4.40;;;27.70;38.90;;;;;;4996142;28;20100;-80
2022/09/01 11:09:25;;;;;;;9.23;4.13;;;27.50;39.70;;;;;;4995326;28;20356;-80
2022/09/01 11:11:53;;;;;;;9.15;3.80;;;27.70;39.70;;;;;;4993248;28;20433;-80
2022/09/01 11:14:25;;;;;;;8.38;4.45;;;27.80;38.50;;;;;;4992106;28;20058;-83
2022/09/01 11:17:17;;;;;;;7.07;4.22;;;27.60;39.10;;;;;;4991989;28;20298;-80
2022/09/01 11:20:09;;;;;;;6.18;3.45;;;27.60;39.40;;;;;;5009337;28;20034;-88
2022/09/01 11:22:39;;;;;;;7.72;3.60;;;28.00;39.10;;;;;;5006739;28;20087;-76
2022/09/01 11:25:11;;;;;;;7.50;3.72;;;28.20;38.30;;;;;;5013869;28;20038;-76
2022/09/01 11:27:49;;;;;;;8.40;4.00;;;28.00;37.00;;;;;;5007642;28;20029;-78
2022/09/01 11:30:44;;;;;;;9.93;5.70;;;27.80;38.80;;;;;;5016852;28;20042;-76
2022/09/01 11:33:16;;;;;;;9.00;3.95;;;28.30;38.00;;;;;;5004693;28;20473;-75
2022/09/01 11:35:45;;;;;;;8.43;3.65;;;28.70;37.40;;;;;;5008210;28;20088;-80
2022/09/01 11:38:15;;;;;;;9.13;3.80;;;28.10;38.00;;;;;;5002075;28;20033;-82
2022/09/01 11:40:41;;;;;;;8.73;3.90;;;28.40;39.30;;;;;;4990741;28;20088;-80
2022/09/01 11:43:12;;;;;;;7.18;3.60;;;28.60;36.50;;;;;;4993901;28;20058;-81
2022/09/01 11:45:49;;;;;;;7.97;4.00;;;28.60;37.40;;;;;;5023358;28;20430;-81
2022/09/01 11:48:16;;;;;;;7.47;3.50;;;28.50;37.50;;;;;;4991960;28;20996;-81
2022/09/01 11:50:42;;;;;;;7.20;3.97;;;28.30;37.20;;;;;;4991808;28;20053;-81
2022/09/01 11:53:20;;;;;;;7.18;4.00;;;28.50;37.90;;;;;;4991293;28;20034;-80
2022/09/01 11:55:49;;;;;;;7.88;3.67;;;28.50;37.60;;;;;;4987874;28;20378;-81
2022/09/01 11:58:27;;;;;;;7.40;3.90;;;28.60;37.70;;;;;;4989924;28;20506;-80
2022/09/01 12:00:55;;;;;;;7.43;3.75;;;28.50;37.60;;;;;;4994214;28;20100;-80
2022/09/01 12:03:24;;;;;;;7.82;3.90;;;28.40;37.70;;;;;;4993297;28;20053;-82
2022/09/01 12:06:02;;;;;;;8.15;4.28;;;28.50;37.50;;;;;;4997074;28;20053;-82
2022/09/01 12:08:33;;;;;;;8.48;4.07;;;28.20;37.40;;;;;;4992317;28;20113;-80
2022/09/01 12:11:07;;;;;;;7.10;4.03;;;28.00;37.70;;;;;;4989762;28;20043;-81
2022/09/01 12:13:34;;;;;;;7.63;3.90;;;27.90;38.70;;;;;;4992131;28;20042;-81
2022/09/01 12:16:04;;;;;;;6.38;3.80;;;28.10;38.60;;;;;;4993470;28;20057;-78
2022/09/01 12:18:33;;;;;;;9.07;4.55;;;28.10;38.10;;;;;;4988973;28;20069;-79
2022/09/01 12:21:01;;;;;;;10.70;5.28;;;27.50;38.50;;;;;;4989644;28;20109;-78
2022/09/01 12:23:30;;;;;;;8.05;4.43;;;27.70;39.00;;;;;;4991754;28;20553;-81
2022/09/01 12:26:02;;;;;;;8.32;5.10;;;27.50;39.40;;;;;;4991236;28;20113;-81
2022/09/01 12:28:30;;;;;;;9.38;4.97;;;27.70;38.20;;;;;;4991640;28;20038;-81
2022/09/01 12:30:58;;;;;;;7.15;4.45;;;27.50;38.90;;;;;;4992743;28;20030;-80
2022/09/01 12:33:24;;;;;;;8.43;4.90;;;27.40;39.10;;;;;;4990199;28;20042;-80
2022/09/01 12:35:50;;;;;;;8.02;4.18;;;27.30;39.30;;;;;;4994118;28;20038;-81
2022/09/01 12:38:19;;;;;;;7.43;4.07;;;27.10;39.50;;;;;;4996578;28;20042;-80
2022/09/01 12:40:47;;;;;;;10.35;4.30;;;27.00;39.90;;;;;;4995808;28;20385;-80
2022/09/01 12:43:31;;;;;;;10.05;4.53;;;27.00;39.80;;;;;;5006601;28;20507;-82
2022/09/01 12:46:00;;;;;;;6.65;3.72;;;26.90;39.30;;;;;;5011426;28;20045;-81
2022/09/01 12:48:40;;;;;;;5.80;4.15;;;26.80;39.10;;;;;;5002859;28;20041;-82
2022/09/01 12:51:24;;;;;;;8.20;3.72;;;27.10;38.80;;;;;;5003300;28;20068;-81
2022/09/01 12:53:59;;;;;;;9.05;3.80;;;27.30;38.20;;;;;;5002740;28;20118;-82
2022/09/01 12:56:37;;;;;;;9.55;3.95;;;27.30;39.00;;;;;;5006977;28;20133;-83
2022/09/01 12:59:12;;;;;;;6.50;3.40;;;27.60;38.00;;;;;;5022327;28;20040;-81
2022/09/01 13:01:40;;;;;;;7.85;3.70;;;27.80;38.40;;;;;;5009339;28;20050;-82
2022/09/01 13:04:29;;;;;;;8.10;3.47;;;28.00;37.30;;;;;;5013618;28;20116;-82
2022/09/01 13:07:06;;;;;;;6.15;3.55;;;27.60;37.00;;;;;;5021636;28;20552;-80